sensor_id;sensor_type;location;lat;lon;timestamp;P1;durP1;ratioP1;P2;durP2;ratioP2
26303;SDS011;57113;48.680;8.890;2022-12-07T00:01:05;3.42;;;2.10;;
26303;SDS011;57113;48.680;8.890;2022-12-07T01:14:15;2.47;;;2.00;;
26303;SDS011;57113;48.680;8.890;2022-12-07T01:16:41;2.45;;;2.10;;
26303;SDS011;57113;48.680;8.890;2022-12-07T01:19:06;2.88;;;2.20;;
26303;SDS011;57113;48.680;8.890;2022-12-07T01:21:33;3.63;;;2.33;;
26303;SDS011;57113;48.680;8.890;2022-12-07T01:24:01;2.72;;;2.17;;
26303;SDS011;57113;48.680;8.890;2022-12-07T01:26:27;3.00;;;1.95;;
26303;SDS011;57113;48.680;8.890;2022-12-07T01:28:53;2.63;;;2.35;;
26303;SDS011;57113;48.680;8.890;2022-12-07T01:31:21;3.10;;;2.05;;
26303;SDS011;57113;48.680;8.890;2022-12-07T01:33:49;3.42;;;2.40;;
26303;SDS011;57113;48.680;8.890;2022-12-07T02:30:38;4.18;;;2.83;;
26303;SDS011;57113;48.680;8.890;2022-12-07T02:33:14;3.30;;;2.20;;
26303;SDS011;57113;48.680;8.890;2022-12-07T02:36:04;3.97;;;2.40;;
26303;SDS011;57113;48.680;8.890;2022-12-07T02:38:38;3.20;;;2.40;;
26303;SDS011;57113;48.680;8.890;2022-12-07T02:41:22;3.45;;;2.40;;
26303;SDS011;57113;48.680;8.890;2022-12-07T02:43:53;4.30;;;2.45;;
26303;SDS011;57113;48.680;8.890;2022-12-07T02:46:32;3.67;;;2.30;;
26303;SDS011;57113;48.680;8.890;2022-12-07T02:49:02;2.38;;;1.95;;
26303;SDS011;57113;48.680;8.890;2022-12-07T02:51:32;3.28;;;2.53;;
26303;SDS011;57113;48.680;8.890;2022-12-07T02:53:58;4.13;;;2.28;;
26303;SDS011;57113;48.680;8.890;2022-12-07T02:56:31;3.17;;;2.60;;
26303;SDS011;57113;48.680;8.890;2022-12-07T03:15:16;3.15;;;2.60;;
26303;SDS011;57113;48.680;8.890;2022-12-07T03:17:56;2.75;;;2.00;;
26303;SDS011;57113;48.680;8.890;2022-12-07T03:20:27;3.45;;;2.38;;
26303;SDS011;57113;48.680;8.890;2022-12-07T03:22:56;3.15;;;2.40;;
26303;SDS011;57113;48.680;8.890;2022-12-07T03:25:24;3.97;;;2.80;;
26303;SDS011;57113;48.680;8.890;2022-12-07T03:27:54;2.88;;;2.45;;
26303;SDS011;57113;48.680;8.890;2022-12-07T03:30:31;2.60;;;2.20;;
26303;SDS011;57113;48.680;8.890;2022-12-07T03:33:08;3.20;;;2.60;;
26303;SDS011;57113;48.680;8.890;2022-12-07T03:35:45;3.03;;;2.22;;
26303;SDS011;57113;48.680;8.890;2022-12-07T03:43:11;3.33;;;2.58;;
26303;SDS011;57113;48.680;8.890;2022-12-07T03:45:41;3.30;;;2.50;;
26303;SDS011;57113;48.680;8.890;2022-12-07T03:48:25;3.72;;;2.63;;
26303;SDS011;57113;48.680;8.890;2022-12-07T03:50:58;3.03;;;2.50;;
26303;SDS011;57113;48.680;8.890;2022-12-07T03:53:43;3.28;;;2.58;;
26303;SDS011;57113;48.680;8.890;2022-12-07T03:56:13;3.17;;;2.45;;
26303;SDS011;57113;48.680;8.890;2022-12-07T03:58:40;3.75;;;2.58;;
26303;SDS011;57113;48.680;8.890;2022-12-07T04:01:06;3.90;;;2.45;;
26303;SDS011;57113;48.680;8.890;2022-12-07T04:03:32;3.85;;;2.80;;
26303;SDS011;57113;48.680;8.890;2022-12-07T04:05:57;5.78;;;2.97;;
26303;SDS011;57113;48.680;8.890;2022-12-07T04:08:24;2.75;;;2.38;;
26303;SDS011;57113;48.680;8.890;2022-12-07T04:10:50;3.05;;;2.55;;
26303;SDS011;57113;48.680;8.890;2022-12-07T04:13:15;3.13;;;2.45;;
26303;SDS011;57113;48.680;8.890;2022-12-07T04:15:41;3.65;;;2.60;;
26303;SDS011;57113;48.680;8.890;2022-12-07T04:18:07;3.08;;;2.58;;
26303;SDS011;57113;48.680;8.890;2022-12-07T04:20:32;3.83;;;2.72;;
26303;SDS011;57113;48.680;8.890;2022-12-07T04:22:58;3.78;;;2.40;;
26303;SDS011;57113;48.680;8.890;2022-12-07T04:25:23;3.33;;;2.50;;
26303;SDS011;57113;48.680;8.890;2022-12-07T04:27:49;3.30;;;2.60;;
26303;SDS011;57113;48.680;8.890;2022-12-07T04:30:15;3.15;;;2.63;;
26303;SDS011;57113;48.680;8.890;2022-12-07T04:32:40;2.70;;;2.20;;
26303;SDS011;57113;48.680;8.890;2022-12-07T04:35:06;3.20;;;2.55;;
26303;SDS011;57113;48.680;8.890;2022-12-07T04:37:32;2.65;;;2.22;;
26303;SDS011;57113;48.680;8.890;2022-12-07T04:39:58;3.53;;;2.60;;
26303;SDS011;57113;48.680;8.890;2022-12-07T04:42:23;3.47;;;2.00;;
26303;SDS011;57113;48.680;8.890;2022-12-07T04:44:49;3.28;;;2.10;;
26303;SDS011;57113;48.680;8.890;2022-12-07T04:47:16;2.85;;;2.13;;
26303;SDS011;57113;48.680;8.890;2022-12-07T04:49:41;2.85;;;2.33;;
26303;SDS011;57113;48.680;8.890;2022-12-07T04:52:07;3.05;;;2.50;;
26303;SDS011;57113;48.680;8.890;2022-12-07T04:54:33;3.17;;;2.47;;
26303;SDS011;57113;48.680;8.890;2022-12-07T04:56:58;3.13;;;2.33;;
26303;SDS011;57113;48.680;8.890;2022-12-07T04:59:24;3.03;;;2.47;;
26303;SDS011;57113;48.680;8.890;2022-12-07T05:01:50;3.08;;;2.40;;
26303;SDS011;57113;48.680;8.890;2022-12-07T05:04:15;3.20;;;2.30;;
26303;SDS011;57113;48.680;8.890;2022-12-07T05:06:42;2.97;;;2.38;;
26303;SDS011;57113;48.680;8.890;2022-12-07T05:09:08;2.70;;;2.45;;
26303;SDS011;57113;48.680;8.890;2022-12-07T05:11:33;6.28;;;3.33;;
26303;SDS011;57113;48.680;8.890;2022-12-07T05:14:12;3.30;;;2.28;;
26303;SDS011;57113;48.680;8.890;2022-12-07T05:16:42;3.03;;;2.33;;
26303;SDS011;57113;48.680;8.890;2022-12-07T05:19:08;3.20;;;2.38;;
26303;SDS011;57113;48.680;8.890;2022-12-07T05:21:35;3.10;;;2.28;;
26303;SDS011;57113;48.680;8.890;2022-12-07T05:24:01;3.28;;;2.38;;
26303;SDS011;57113;48.680;8.890;2022-12-07T05:26:27;4.30;;;2.53;;
26303;SDS011;57113;48.680;8.890;2022-12-07T05:28:53;4.05;;;2.40;;
26303;SDS011;57113;48.680;8.890;2022-12-07T05:31:20;3.75;;;2.22;;
26303;SDS011;57113;48.680;8.890;2022-12-07T05:33:46;3.67;;;2.72;;
26303;SDS011;57113;48.680;8.890;2022-12-07T05:36:12;3.85;;;2.65;;
26303;SDS011;57113;48.680;8.890;2022-12-07T05:38:38;4.00;;;2.30;;
26303;SDS011;57113;48.680;8.890;2022-12-07T05:41:04;3.30;;;2.45;;
26303;SDS011;57113;48.680;8.890;2022-12-07T05:43:32;4.15;;;2.55;;
26303;SDS011;57113;48.680;8.890;2022-12-07T05:45:58;3.08;;;2.58;;
26303;SDS011;57113;48.680;8.890;2022-12-07T05:48:24;3.33;;;2.50;;
26303;SDS011;57113;48.680;8.890;2022-12-07T05:50:51;3.38;;;2.45;;
26303;SDS011;57113;48.680;8.890;2022-12-07T05:53:17;3.67;;;2.60;;
26303;SDS011;57113;48.680;8.890;2022-12-07T05:55:43;5.65;;;2.80;;
26303;SDS011;57113;48.680;8.890;2022-12-07T05:58:09;4.18;;;3.03;;
26303;SDS011;57113;48.680;8.890;2022-12-07T06:00:54;4.03;;;2.67;;
26303;SDS011;57113;48.680;8.890;2022-12-07T06:03:20;3.35;;;2.50;;
26303;SDS011;57113;48.680;8.890;2022-12-07T06:05:46;3.92;;;2.50;;
26303;SDS011;57113;48.680;8.890;2022-12-07T06:08:12;2.95;;;2.25;;
26303;SDS011;57113;48.680;8.890;2022-12-07T06:10:39;3.22;;;2.28;;
26303;SDS011;57113;48.680;8.890;2022-12-07T06:13:05;3.45;;;2.63;;
26303;SDS011;57113;48.680;8.890;2022-12-07T06:15:30;3.92;;;3.00;;
26303;SDS011;57113;48.680;8.890;2022-12-07T06:17:56;3.65;;;2.55;;
26303;SDS011;57113;48.680;8.890;2022-12-07T06:20:22;3.05;;;2.50;;
26303;SDS011;57113;48.680;8.890;2022-12-07T06:22:47;4.50;;;3.10;;
26303;SDS011;57113;48.680;8.890;2022-12-07T06:25:13;3.97;;;2.58;;
26303;SDS011;57113;48.680;8.890;2022-12-07T06:27:38;4.07;;;2.78;;
26303;SDS011;57113;48.680;8.890;2022-12-07T06:30:04;3.35;;;2.55;;
26303;SDS011;57113;48.680;8.890;2022-12-07T06:32:32;3.20;;;2.30;;
26303;SDS011;57113;48.680;8.890;2022-12-07T06:34:59;4.25;;;2.92;;
26303;SDS011;57113;48.680;8.890;2022-12-07T06:37:24;4.28;;;3.10;;
26303;SDS011;57113;48.680;8.890;2022-12-07T06:39:50;3.40;;;2.40;;
26303;SDS011;57113;48.680;8.890;2022-12-07T06:42:16;3.85;;;2.80;;
26303;SDS011;57113;48.680;8.890;2022-12-07T06:44:42;3.67;;;2.83;;
26303;SDS011;57113;48.680;8.890;2022-12-07T06:47:08;4.70;;;3.30;;
26303;SDS011;57113;48.680;8.890;2022-12-07T06:49:34;4.07;;;3.10;;
26303;SDS011;57113;48.680;8.890;2022-12-07T06:52:00;5.43;;;3.40;;
26303;SDS011;57113;48.680;8.890;2022-12-07T06:54:25;3.80;;;3.03;;
26303;SDS011;57113;48.680;8.890;2022-12-07T06:56:51;4.63;;;3.35;;
26303;SDS011;57113;48.680;8.890;2022-12-07T06:59:17;4.15;;;3.20;;
26303;SDS011;57113;48.680;8.890;2022-12-07T07:01:42;5.03;;;3.40;;
26303;SDS011;57113;48.680;8.890;2022-12-07T07:04:08;5.05;;;3.40;;
26303;SDS011;57113;48.680;8.890;2022-12-07T07:06:33;5.75;;;3.85;;
26303;SDS011;57113;48.680;8.890;2022-12-07T07:08:59;4.45;;;3.25;;
26303;SDS011;57113;48.680;8.890;2022-12-07T07:11:25;5.05;;;3.45;;
26303;SDS011;57113;48.680;8.890;2022-12-07T07:13:51;4.43;;;3.38;;
26303;SDS011;57113;48.680;8.890;2022-12-07T07:16:16;4.93;;;3.42;;
26303;SDS011;57113;48.680;8.890;2022-12-07T07:18:42;4.30;;;3.05;;
26303;SDS011;57113;48.680;8.890;2022-12-07T07:21:07;5.30;;;3.40;;
26303;SDS011;57113;48.680;8.890;2022-12-07T07:23:33;3.63;;;3.17;;
26303;SDS011;57113;48.680;8.890;2022-12-07T07:25:59;4.20;;;3.13;;
26303;SDS011;57113;48.680;8.890;2022-12-07T07:28:24;4.47;;;3.53;;
26303;SDS011;57113;48.680;8.890;2022-12-07T07:30:50;9.98;;;3.40;;
26303;SDS011;57113;48.680;8.890;2022-12-07T07:33:16;4.28;;;3.17;;
26303;SDS011;57113;48.680;8.890;2022-12-07T07:35:41;5.10;;;3.63;;
26303;SDS011;57113;48.680;8.890;2022-12-07T07:38:07;4.53;;;3.35;;
26303;SDS011;57113;48.680;8.890;2022-12-07T07:40:33;10.93;;;7.72;;
26303;SDS011;57113;48.680;8.890;2022-12-07T07:42:59;16.30;;;9.32;;
26303;SDS011;57113;48.680;8.890;2022-12-07T07:45:25;12.40;;;8.90;;
26303;SDS011;57113;48.680;8.890;2022-12-07T07:47:51;14.20;;;8.95;;
26303;SDS011;57113;48.680;8.890;2022-12-07T07:50:17;13.98;;;9.35;;
26303;SDS011;57113;48.680;8.890;2022-12-07T07:52:43;15.40;;;9.25;;
26303;SDS011;57113;48.680;8.890;2022-12-07T07:55:10;14.98;;;8.52;;
26303;SDS011;57113;48.680;8.890;2022-12-07T07:57:36;15.45;;;9.15;;
26303;SDS011;57113;48.680;8.890;2022-12-07T08:00:04;15.32;;;8.85;;
26303;SDS011;57113;48.680;8.890;2022-12-07T08:02:37;15.30;;;8.95;;
26303;SDS011;57113;48.680;8.890;2022-12-07T08:05:03;16.10;;;8.45;;
26303;SDS011;57113;48.680;8.890;2022-12-07T08:07:29;14.88;;;8.98;;
26303;SDS011;57113;48.680;8.890;2022-12-07T08:09:54;10.93;;;7.70;;
26303;SDS011;57113;48.680;8.890;2022-12-07T08:12:20;12.93;;;7.75;;
26303;SDS011;57113;48.680;8.890;2022-12-07T08:14:45;11.02;;;8.27;;
26303;SDS011;57113;48.680;8.890;2022-12-07T08:17:11;11.50;;;7.90;;
26303;SDS011;57113;48.680;8.890;2022-12-07T08:19:38;10.45;;;7.57;;
26303;SDS011;57113;48.680;8.890;2022-12-07T08:22:03;10.75;;;7.47;;
26303;SDS011;57113;48.680;8.890;2022-12-07T08:24:29;10.95;;;6.63;;
26303;SDS011;57113;48.680;8.890;2022-12-07T08:26:55;9.90;;;6.95;;
26303;SDS011;57113;48.680;8.890;2022-12-07T08:29:21;9.10;;;6.50;;
26303;SDS011;57113;48.680;8.890;2022-12-07T08:31:46;9.15;;;6.85;;
26303;SDS011;57113;48.680;8.890;2022-12-07T08:34:12;8.60;;;6.50;;
26303;SDS011;57113;48.680;8.890;2022-12-07T08:36:38;8.75;;;6.30;;
26303;SDS011;57113;48.680;8.890;2022-12-07T08:39:04;8.57;;;5.75;;
26303;SDS011;57113;48.680;8.890;2022-12-07T08:41:31;8.55;;;6.18;;
26303;SDS011;57113;48.680;8.890;2022-12-07T08:43:56;9.02;;;6.57;;
26303;SDS011;57113;48.680;8.890;2022-12-07T08:46:26;9.10;;;5.97;;
26303;SDS011;57113;48.680;8.890;2022-12-07T08:51:43;8.00;;;6.03;;
26303;SDS011;57113;48.680;8.890;2022-12-07T08:54:14;6.88;;;5.50;;
26303;SDS011;57113;48.680;8.890;2022-12-07T08:56:42;6.55;;;4.97;;
26303;SDS011;57113;48.680;8.890;2022-12-07T08:59:09;11.38;;;6.15;;
26303;SDS011;57113;48.680;8.890;2022-12-07T09:01:35;7.82;;;5.75;;
26303;SDS011;57113;48.680;8.890;2022-12-07T09:04:01;9.95;;;5.90;;
26303;SDS011;57113;48.680;8.890;2022-12-07T09:06:26;6.70;;;4.82;;
26303;SDS011;57113;48.680;8.890;2022-12-07T09:08:53;8.32;;;5.25;;
26303;SDS011;57113;48.680;8.890;2022-12-07T09:11:23;8.07;;;5.35;;
26303;SDS011;57113;48.680;8.890;2022-12-07T09:13:49;6.72;;;4.65;;
26303;SDS011;57113;48.680;8.890;2022-12-07T09:16:14;7.75;;;5.35;;
26303;SDS011;57113;48.680;8.890;2022-12-07T09:18:40;7.57;;;5.15;;
26303;SDS011;57113;48.680;8.890;2022-12-07T09:21:06;7.72;;;5.38;;
26303;SDS011;57113;48.680;8.890;2022-12-07T09:23:32;6.90;;;5.03;;
26303;SDS011;57113;48.680;8.890;2022-12-07T09:26:01;7.30;;;5.20;;
26303;SDS011;57113;48.680;8.890;2022-12-07T09:28:27;5.85;;;4.50;;
26303;SDS011;57113;48.680;8.890;2022-12-07T09:30:53;6.53;;;4.85;;
26303;SDS011;57113;48.680;8.890;2022-12-07T09:33:19;6.85;;;4.90;;
26303;SDS011;57113;48.680;8.890;2022-12-07T09:35:45;6.28;;;4.65;;
26303;SDS011;57113;48.680;8.890;2022-12-07T09:38:12;6.47;;;4.43;;
26303;SDS011;57113;48.680;8.890;2022-12-07T09:40:38;7.93;;;4.80;;
26303;SDS011;57113;48.680;8.890;2022-12-07T09:43:03;6.35;;;4.32;;
26303;SDS011;57113;48.680;8.890;2022-12-07T09:47:58;6.13;;;4.57;;
26303;SDS011;57113;48.680;8.890;2022-12-07T09:50:25;7.22;;;5.00;;
26303;SDS011;57113;48.680;8.890;2022-12-07T09:52:53;6.07;;;4.35;;
26303;SDS011;57113;48.680;8.890;2022-12-07T09:55:23;6.40;;;4.57;;
26303;SDS011;57113;48.680;8.890;2022-12-07T09:57:52;6.30;;;4.63;;
26303;SDS011;57113;48.680;8.890;2022-12-07T10:00:19;8.23;;;4.10;;
26303;SDS011;57113;48.680;8.890;2022-12-07T10:02:55;6.75;;;3.88;;
26303;SDS011;57113;48.680;8.890;2022-12-07T10:05:23;4.57;;;3.85;;
26303;SDS011;57113;48.680;8.890;2022-12-07T10:07:55;6.15;;;3.90;;
26303;SDS011;57113;48.680;8.890;2022-12-07T10:10:30;5.57;;;3.78;;
26303;SDS011;57113;48.680;8.890;2022-12-07T10:15:43;6.03;;;3.83;;
26303;SDS011;57113;48.680;8.890;2022-12-07T10:18:18;6.60;;;3.90;;
26303;SDS011;57113;48.680;8.890;2022-12-07T10:20:45;5.45;;;3.65;;
26303;SDS011;57113;48.680;8.890;2022-12-07T10:23:16;6.10;;;4.00;;
26303;SDS011;57113;48.680;8.890;2022-12-07T10:25:43;4.90;;;3.33;;
26303;SDS011;57113;48.680;8.890;2022-12-07T10:28:13;4.32;;;3.10;;
26303;SDS011;57113;48.680;8.890;2022-12-07T10:33:57;4.55;;;3.42;;
26303;SDS011;57113;48.680;8.890;2022-12-07T10:36:30;4.90;;;3.30;;
26303;SDS011;57113;48.680;8.890;2022-12-07T10:39:14;4.38;;;3.35;;
26303;SDS011;57113;48.680;8.890;2022-12-07T10:42:01;5.35;;;3.67;;
26303;SDS011;57113;48.680;8.890;2022-12-07T10:44:29;3.53;;;2.85;;
26303;SDS011;57113;48.680;8.890;2022-12-07T10:52:38;3.97;;;2.80;;
26303;SDS011;57113;48.680;8.890;2022-12-07T10:55:33;3.75;;;2.95;;
26303;SDS011;57113;48.680;8.890;2022-12-07T11:31:52;3.45;;;2.53;;
26303;SDS011;57113;48.680;8.890;2022-12-07T11:37:20;2.92;;;2.22;;
26303;SDS011;57113;48.680;8.890;2022-12-07T11:39:51;3.42;;;2.22;;
26303;SDS011;57113;48.680;8.890;2022-12-07T11:42:24;2.92;;;2.35;;
26303;SDS011;57113;48.680;8.890;2022-12-07T11:44:53;3.05;;;2.20;;
26303;SDS011;57113;48.680;8.890;2022-12-07T11:47:26;4.18;;;2.40;;
26303;SDS011;57113;48.680;8.890;2022-12-07T12:03:40;3.00;;;2.20;;
26303;SDS011;57113;48.680;8.890;2022-12-07T12:06:12;2.58;;;2.10;;
26303;SDS011;57113;48.680;8.890;2022-12-07T12:08:53;3.22;;;2.08;;
26303;SDS011;57113;48.680;8.890;2022-12-07T12:11:56;3.15;;;2.17;;
26303;SDS011;57113;48.680;8.890;2022-12-07T12:17:31;4.65;;;2.20;;
26303;SDS011;57113;48.680;8.890;2022-12-07T12:20:16;2.70;;;2.10;;
26303;SDS011;57113;48.680;8.890;2022-12-07T12:22:55;2.72;;;1.90;;
26303;SDS011;57113;48.680;8.890;2022-12-07T12:27:57;2.50;;;1.80;;
26303;SDS011;57113;48.680;8.890;2022-12-07T12:30:37;2.10;;;1.67;;
26303;SDS011;57113;48.680;8.890;2022-12-07T12:33:20;5.10;;;1.83;;
26303;SDS011;57113;48.680;8.890;2022-12-07T12:51:48;2.50;;;1.80;;
26303;SDS011;57113;48.680;8.890;2022-12-07T12:54:29;2.00;;;1.70;;
26303;SDS011;57113;48.680;8.890;2022-12-07T12:57:01;2.00;;;1.73;;
26303;SDS011;57113;48.680;8.890;2022-12-07T13:20:52;1.60;;;1.40;;
26303;SDS011;57113;48.680;8.890;2022-12-07T13:23:35;2.53;;;1.90;;
26303;SDS011;57113;48.680;8.890;2022-12-07T13:26:17;1.83;;;1.40;;
26303;SDS011;57113;48.680;8.890;2022-12-07T13:29:12;1.95;;;1.50;;
26303;SDS011;57113;48.680;8.890;2022-12-07T13:31:40;1.92;;;1.60;;
26303;SDS011;57113;48.680;8.890;2022-12-07T13:39:58;3.10;;;1.42;;
26303;SDS011;57113;48.680;8.890;2022-12-07T13:42:30;2.17;;;1.75;;
26303;SDS011;57113;48.680;8.890;2022-12-07T13:44:58;1.90;;;1.50;;
26303;SDS011;57113;48.680;8.890;2022-12-07T13:47:35;1.80;;;1.42;;
26303;SDS011;57113;48.680;8.890;2022-12-07T13:52:55;2.38;;;1.40;;
26303;SDS011;57113;48.680;8.890;2022-12-07T13:55:23;1.60;;;1.45;;
26303;SDS011;57113;48.680;8.890;2022-12-07T13:57:49;1.90;;;1.50;;
26303;SDS011;57113;48.680;8.890;2022-12-07T14:00:17;2.00;;;1.70;;
26303;SDS011;57113;48.680;8.890;2022-12-07T14:02:58;3.40;;;1.63;;
26303;SDS011;57113;48.680;8.890;2022-12-07T14:05:29;2.20;;;1.48;;
26303;SDS011;57113;48.680;8.890;2022-12-07T14:12:58;3.45;;;1.50;;
26303;SDS011;57113;48.680;8.890;2022-12-07T14:15:27;1.73;;;1.63;;
26303;SDS011;57113;48.680;8.890;2022-12-07T14:17:55;1.77;;;1.30;;
26303;SDS011;57113;48.680;8.890;2022-12-07T14:20:32;2.20;;;1.58;;
26303;SDS011;57113;48.680;8.890;2022-12-07T14:23:03;1.60;;;1.50;;
26303;SDS011;57113;48.680;8.890;2022-12-07T14:25:45;2.08;;;1.40;;
26303;SDS011;57113;48.680;8.890;2022-12-07T14:28:25;2.20;;;1.58;;
26303;SDS011;57113;48.680;8.890;2022-12-07T14:30:56;1.67;;;1.48;;
26303;SDS011;57113;48.680;8.890;2022-12-07T14:33:22;2.13;;;1.48;;
26303;SDS011;57113;48.680;8.890;2022-12-07T14:35:49;1.67;;;1.30;;
26303;SDS011;57113;48.680;8.890;2022-12-07T14:38:15;2.67;;;1.30;;
26303;SDS011;57113;48.680;8.890;2022-12-07T14:40:43;1.67;;;1.35;;
26303;SDS011;57113;48.680;8.890;2022-12-07T14:43:10;2.08;;;1.40;;
26303;SDS011;57113;48.680;8.890;2022-12-07T14:45:37;1.38;;;1.08;;
26303;SDS011;57113;48.680;8.890;2022-12-07T14:48:04;1.73;;;1.40;;
26303;SDS011;57113;48.680;8.890;2022-12-07T14:50:30;2.17;;;1.50;;
26303;SDS011;57113;48.680;8.890;2022-12-07T14:53:03;1.95;;;1.63;;
26303;SDS011;57113;48.680;8.890;2022-12-07T14:55:38;2.42;;;1.83;;
26303;SDS011;57113;48.680;8.890;2022-12-07T14:58:04;2.75;;;1.75;;
26303;SDS011;57113;48.680;8.890;2022-12-07T15:00:30;2.53;;;1.83;;
26303;SDS011;57113;48.680;8.890;2022-12-07T15:02:55;2.75;;;1.65;;
26303;SDS011;57113;48.680;8.890;2022-12-07T15:05:22;3.00;;;1.90;;
26303;SDS011;57113;48.680;8.890;2022-12-07T15:07:48;3.13;;;2.10;;
26303;SDS011;57113;48.680;8.890;2022-12-07T15:10:19;3.25;;;2.15;;
26303;SDS011;57113;48.680;8.890;2022-12-07T15:12:45;3.30;;;2.05;;
26303;SDS011;57113;48.680;8.890;2022-12-07T15:15:11;3.67;;;1.90;;
26303;SDS011;57113;48.680;8.890;2022-12-07T15:17:37;2.42;;;1.75;;
26303;SDS011;57113;48.680;8.890;2022-12-07T15:20:03;3.83;;;1.98;;
26303;SDS011;57113;48.680;8.890;2022-12-07T15:22:29;3.55;;;2.33;;
26303;SDS011;57113;48.680;8.890;2022-12-07T15:24:56;3.25;;;2.13;;
26303;SDS011;57113;48.680;8.890;2022-12-07T15:27:22;2.95;;;2.05;;
26303;SDS011;57113;48.680;8.890;2022-12-07T15:29:48;3.20;;;2.20;;
26303;SDS011;57113;48.680;8.890;2022-12-07T15:32:13;4.32;;;2.28;;
26303;SDS011;57113;48.680;8.890;2022-12-07T15:34:39;3.30;;;1.80;;
26303;SDS011;57113;48.680;8.890;2022-12-07T15:37:05;2.97;;;2.00;;
26303;SDS011;57113;48.680;8.890;2022-12-07T15:39:31;3.83;;;2.67;;
26303;SDS011;57113;48.680;8.890;2022-12-07T15:41:56;2.72;;;1.98;;
26303;SDS011;57113;48.680;8.890;2022-12-07T15:44:22;3.38;;;2.20;;
26303;SDS011;57113;48.680;8.890;2022-12-07T15:47:06;3.47;;;2.40;;
26303;SDS011;57113;48.680;8.890;2022-12-07T15:49:32;4.03;;;2.33;;
26303;SDS011;57113;48.680;8.890;2022-12-07T15:51:58;3.22;;;2.50;;
26303;SDS011;57113;48.680;8.890;2022-12-07T15:54:24;3.70;;;2.20;;
26303;SDS011;57113;48.680;8.890;2022-12-07T15:56:51;3.33;;;2.05;;
26303;SDS011;57113;48.680;8.890;2022-12-07T15:59:18;3.10;;;2.22;;
26303;SDS011;57113;48.680;8.890;2022-12-07T16:01:44;2.88;;;2.25;;
26303;SDS011;57113;48.680;8.890;2022-12-07T16:04:09;4.93;;;3.13;;
26303;SDS011;57113;48.680;8.890;2022-12-07T16:06:35;2.80;;;2.30;;
26303;SDS011;57113;48.680;8.890;2022-12-07T16:09:01;3.83;;;2.15;;
26303;SDS011;57113;48.680;8.890;2022-12-07T16:11:27;3.33;;;2.22;;
26303;SDS011;57113;48.680;8.890;2022-12-07T16:13:52;5.40;;;2.63;;
26303;SDS011;57113;48.680;8.890;2022-12-07T16:16:18;3.53;;;2.40;;
26303;SDS011;57113;48.680;8.890;2022-12-07T16:18:45;3.45;;;2.40;;
26303;SDS011;57113;48.680;8.890;2022-12-07T16:21:12;2.95;;;2.35;;
26303;SDS011;57113;48.680;8.890;2022-12-07T16:23:38;4.55;;;2.15;;
26303;SDS011;57113;48.680;8.890;2022-12-07T16:26:08;2.78;;;1.98;;
26303;SDS011;57113;48.680;8.890;2022-12-07T16:28:41;5.43;;;2.90;;
26303;SDS011;57113;48.680;8.890;2022-12-07T16:31:09;3.60;;;2.78;;
26303;SDS011;57113;48.680;8.890;2022-12-07T16:33:39;4.65;;;2.88;;
26303;SDS011;57113;48.680;8.890;2022-12-07T16:36:06;5.43;;;3.38;;
26303;SDS011;57113;48.680;8.890;2022-12-07T16:38:33;7.78;;;4.53;;
26303;SDS011;57113;48.680;8.890;2022-12-07T16:41:00;7.80;;;4.10;;
26303;SDS011;57113;48.680;8.890;2022-12-07T16:43:25;7.10;;;4.15;;
26303;SDS011;57113;48.680;8.890;2022-12-07T16:45:51;7.30;;;4.68;;
26303;SDS011;57113;48.680;8.890;2022-12-07T16:48:17;9.80;;;5.15;;
26303;SDS011;57113;48.680;8.890;2022-12-07T16:50:43;8.90;;;5.40;;
26303;SDS011;57113;48.680;8.890;2022-12-07T16:53:10;11.30;;;5.38;;
26303;SDS011;57113;48.680;8.890;2022-12-07T16:55:39;8.23;;;4.68;;
26303;SDS011;57113;48.680;8.890;2022-12-07T16:58:06;9.65;;;4.93;;
26303;SDS011;57113;48.680;8.890;2022-12-07T17:00:32;8.70;;;5.10;;
26303;SDS011;57113;48.680;8.890;2022-12-07T17:02:58;8.52;;;4.88;;
26303;SDS011;57113;48.680;8.890;2022-12-07T17:05:24;7.97;;;4.70;;
26303;SDS011;57113;48.680;8.890;2022-12-07T17:07:53;7.38;;;4.65;;
26303;SDS011;57113;48.680;8.890;2022-12-07T17:10:18;10.43;;;5.13;;
26303;SDS011;57113;48.680;8.890;2022-12-07T17:12:44;8.27;;;4.80;;
26303;SDS011;57113;48.680;8.890;2022-12-07T17:15:10;8.30;;;4.80;;
26303;SDS011;57113;48.680;8.890;2022-12-07T17:17:44;5.85;;;3.70;;
26303;SDS011;57113;48.680;8.890;2022-12-07T17:20:11;7.00;;;4.78;;
26303;SDS011;57113;48.680;8.890;2022-12-07T17:22:37;9.95;;;4.68;;
26303;SDS011;57113;48.680;8.890;2022-12-07T17:25:03;7.88;;;4.43;;
26303;SDS011;57113;48.680;8.890;2022-12-07T17:27:30;12.10;;;4.38;;
26303;SDS011;57113;48.680;8.890;2022-12-07T17:29:56;8.65;;;5.03;;
26303;SDS011;57113;48.680;8.890;2022-12-07T17:32:21;7.30;;;4.53;;
26303;SDS011;57113;48.680;8.890;2022-12-07T17:34:47;8.30;;;5.00;;
26303;SDS011;57113;48.680;8.890;2022-12-07T17:37:13;8.13;;;4.40;;
26303;SDS011;57113;48.680;8.890;2022-12-07T17:39:38;5.57;;;3.97;;
26303;SDS011;57113;48.680;8.890;2022-12-07T17:42:04;7.93;;;4.78;;
26303;SDS011;57113;48.680;8.890;2022-12-07T17:47:14;6.80;;;4.05;;
26303;SDS011;57113;48.680;8.890;2022-12-07T17:49:42;8.98;;;4.20;;
26303;SDS011;57113;48.680;8.890;2022-12-07T17:52:10;6.35;;;4.07;;
26303;SDS011;57113;48.680;8.890;2022-12-07T17:54:55;7.25;;;4.40;;
26303;SDS011;57113;48.680;8.890;2022-12-07T17:57:20;8.15;;;4.50;;
26303;SDS011;57113;48.680;8.890;2022-12-07T17:59:46;6.93;;;4.10;;
26303;SDS011;57113;48.680;8.890;2022-12-07T18:02:11;7.60;;;4.60;;
26303;SDS011;57113;48.680;8.890;2022-12-07T18:04:37;7.75;;;5.07;;
26303;SDS011;57113;48.680;8.890;2022-12-07T18:07:05;7.40;;;4.88;;
26303;SDS011;57113;48.680;8.890;2022-12-07T18:09:31;7.53;;;4.78;;
26303;SDS011;57113;48.680;8.890;2022-12-07T18:11:57;8.05;;;4.88;;
26303;SDS011;57113;48.680;8.890;2022-12-07T18:14:23;7.40;;;4.72;;
26303;SDS011;57113;48.680;8.890;2022-12-07T18:16:48;7.55;;;4.25;;
26303;SDS011;57113;48.680;8.890;2022-12-07T18:19:14;6.45;;;4.18;;
26303;SDS011;57113;48.680;8.890;2022-12-07T18:21:41;9.10;;;4.47;;
26303;SDS011;57113;48.680;8.890;2022-12-07T18:24:11;8.50;;;4.53;;
26303;SDS011;57113;48.680;8.890;2022-12-07T18:26:39;8.05;;;5.28;;
26303;SDS011;57113;48.680;8.890;2022-12-07T18:29:06;7.80;;;4.80;;
26303;SDS011;57113;48.680;8.890;2022-12-07T18:31:34;6.75;;;4.40;;
26303;SDS011;57113;48.680;8.890;2022-12-07T18:34:05;7.38;;;4.53;;
26303;SDS011;57113;48.680;8.890;2022-12-07T18:36:41;6.80;;;4.75;;
26303;SDS011;57113;48.680;8.890;2022-12-07T18:39:10;6.25;;;4.03;;
26303;SDS011;57113;48.680;8.890;2022-12-07T18:41:37;7.03;;;4.13;;
26303;SDS011;57113;48.680;8.890;2022-12-07T18:44:03;6.78;;;4.35;;
26303;SDS011;57113;48.680;8.890;2022-12-07T18:46:30;7.80;;;4.85;;
26303;SDS011;57113;48.680;8.890;2022-12-07T18:48:57;7.30;;;4.40;;
26303;SDS011;57113;48.680;8.890;2022-12-07T18:51:22;5.95;;;4.15;;
26303;SDS011;57113;48.680;8.890;2022-12-07T18:53:48;6.43;;;4.30;;
26303;SDS011;57113;48.680;8.890;2022-12-07T18:56:21;5.88;;;3.83;;
26303;SDS011;57113;48.680;8.890;2022-12-07T18:58:52;6.03;;;3.88;;
26303;SDS011;57113;48.680;8.890;2022-12-07T19:01:41;6.80;;;3.80;;
26303;SDS011;57113;48.680;8.890;2022-12-07T19:04:09;6.43;;;4.03;;
26303;SDS011;57113;48.680;8.890;2022-12-07T19:06:34;5.10;;;3.35;;
26303;SDS011;57113;48.680;8.890;2022-12-07T19:09:01;5.90;;;3.70;;
26303;SDS011;57113;48.680;8.890;2022-12-07T19:11:28;6.53;;;4.18;;
26303;SDS011;57113;48.680;8.890;2022-12-07T19:14:35;7.15;;;3.90;;
26303;SDS011;57113;48.680;8.890;2022-12-07T19:17:02;6.30;;;3.80;;
26303;SDS011;57113;48.680;8.890;2022-12-07T19:19:33;6.45;;;3.90;;
26303;SDS011;57113;48.680;8.890;2022-12-07T19:22:01;6.13;;;3.67;;
26303;SDS011;57113;48.680;8.890;2022-12-07T19:24:28;6.25;;;4.00;;
26303;SDS011;57113;48.680;8.890;2022-12-07T19:26:54;5.65;;;4.03;;
26303;SDS011;57113;48.680;8.890;2022-12-07T19:29:20;6.47;;;3.85;;